Terminal Aerodrome Forecast
Issued by NWS Twin Cities, MN

Home | Current Version | Previous Version | Graphics & Text | Print | Product List | Glossary On
Versions: 1 2 3 4 5 6 7 8 9 10 11 12 13 14 15 16 17 18 19 20 21 22 23 24 25 26 27 28
866
FTUS43 KMPX 231453 AAA
TAFMSP
TAF AMD
KMSP 231453Z 2315/2418 30015G24KT P6SM BKN040
     FM231700 30016G24KT P6SM VCSH SCT040 BKN050
     FM231900 30016G24KT P6SM VCTS SCT040 BKN060CB
      TEMPO 2319/2322 6SM SHRA BKN040
     FM232200 30016G24KT P6SM VCSH BKN060
     FM240200 29009KT P6SM SCT070=

USA.gov is the U.S. government's official web portal to all federal, state and local government web resources and services.